createdAt,value
2023-01-27T00:00:26.486Z,20.55
2023-01-27T00:01:27.930Z,20.33
2023-01-27T00:02:29.406Z,23.50
2023-01-27T00:03:30.895Z,23.20
2023-01-27T00:04:32.343Z,19.17
2023-01-27T00:05:33.924Z,20.98
2023-01-27T00:06:35.382Z,21.50
2023-01-27T00:07:37.354Z,23.20
2023-01-27T00:08:39.380Z,20.35
2023-01-27T00:09:41.827Z,20.55
2023-01-27T00:10:43.656Z,21.27
2023-01-27T00:12:03.448Z,20.92
2023-01-27T00:13:23.823Z,21.20
2023-01-27T00:14:25.382Z,19.88
2023-01-27T00:15:27.065Z,22.35
2023-01-27T00:16:28.542Z,20.60
2023-01-27T00:17:29.922Z,21.27
2023-01-27T00:18:31.361Z,22.23
2023-01-27T00:19:32.802Z,18.92
2023-01-27T00:20:53.131Z,21.95
2023-01-27T00:22:12.902Z,18.17
2023-01-27T00:23:35.054Z,21.20
2023-01-27T00:24:36.522Z,21.13
2023-01-27T00:25:37.922Z,21.63
2023-01-27T00:26:39.770Z,19.52
2023-01-27T00:27:41.294Z,21.75
2023-01-27T00:28:44.074Z,21.08
2023-01-27T00:29:45.452Z,22.65
2023-01-27T00:30:46.895Z,21.42
2023-01-27T00:32:06.843Z,22.48
2023-01-27T00:33:27.650Z,21.92
2023-01-27T00:34:29.154Z,20.35
2023-01-27T00:35:30.578Z,19.77
2023-01-27T00:36:31.983Z,20.40
2023-01-27T00:37:33.768Z,20.92
2023-01-27T00:38:40.951Z,23.98
2023-01-27T00:39:42.589Z,21.50
2023-01-27T00:41:03.945Z,20.15
2023-01-27T00:42:06.142Z,22.45
2023-01-27T00:44:13.309Z,23.05
2023-01-27T00:45:33.680Z,21.55
2023-01-27T00:47:36.633Z,18.40
2023-01-27T00:48:38.394Z,21.25
2023-01-27T00:49:39.964Z,23.35
2023-01-27T00:50:41.371Z,21.40
2023-01-27T00:51:42.786Z,22.00
2023-01-27T00:52:45.053Z,24.63
2023-01-27T00:53:47.168Z,21.08
2023-01-27T00:55:49.941Z,21.88
2023-01-27T00:56:51.651Z,21.65
2023-01-27T00:57:53.153Z,19.05
2023-01-27T00:58:54.696Z,21.67
2023-01-27T00:59:56.160Z,22.23
2023-01-27T01:01:00.681Z,20.60
2023-01-27T01:02:02.191Z,22.48
2023-01-27T01:03:03.874Z,21.50
2023-01-27T01:04:05.419Z,22.38
2023-01-27T01:05:07.066Z,26.48
2023-01-27T01:06:11.830Z,23.48
2023-01-27T01:07:13.273Z,23.92
2023-01-27T01:08:14.980Z,27.15
2023-01-27T01:09:16.368Z,24.02
2023-01-27T01:10:17.887Z,29.52
2023-01-27T01:11:23.254Z,24.63
2023-01-27T01:12:24.708Z,23.23
2023-01-27T01:13:28.264Z,24.63
2023-01-27T01:14:29.691Z,24.17
2023-01-27T01:15:31.163Z,21.50
2023-01-27T01:16:32.569Z,24.17
2023-01-27T01:17:34.066Z,22.13
2023-01-27T01:18:35.559Z,21.02
2023-01-27T01:19:37.059Z,22.08
2023-01-27T01:20:47.653Z,26.67
2023-01-27T01:21:49.082Z,24.33
2023-01-27T01:22:50.527Z,25.67
2023-01-27T01:23:52.022Z,29.00
2023-01-27T01:24:53.476Z,26.02
2023-01-27T01:25:57.137Z,25.48
2023-01-27T01:26:58.594Z,26.83
2023-01-27T01:28:00.710Z,25.08
2023-01-27T01:30:03.721Z,27.20
2023-01-27T01:31:11.341Z,26.33
2023-01-27T01:32:12.796Z,26.98
2023-01-27T01:33:14.356Z,27.27
2023-01-27T01:34:15.825Z,25.65
2023-01-27T01:35:17.400Z,24.27
2023-01-27T01:36:20.559Z,28.65
2023-01-27T01:37:22.101Z,29.20
2023-01-27T01:38:23.522Z,29.33
2023-01-27T01:39:24.934Z,27.50
2023-01-27T01:40:26.416Z,26.05
2023-01-27T01:41:27.994Z,27.10
2023-01-27T01:43:06.429Z,29.13
2023-01-27T01:44:21.361Z,26.02
2023-01-27T01:45:32.101Z,28.40
2023-01-27T01:46:33.521Z,24.25
2023-01-27T01:47:34.964Z,27.17
2023-01-27T01:48:46.991Z,26.58
2023-01-27T01:49:48.519Z,28.92
2023-01-27T01:51:13.524Z,29.90
2023-01-27T01:52:19.422Z,28.48
2023-01-27T01:53:22.794Z,30.60
2023-01-27T01:54:28.681Z,27.08
2023-01-27T01:55:32.723Z,28.33
2023-01-27T01:56:38.798Z,26.02
2023-01-27T01:57:42.674Z,28.25
2023-01-27T01:58:46.550Z,30.77
2023-01-27T01:59:56.509Z,27.40
2023-01-27T02:00:58.014Z,28.52
2023-01-27T02:02:04.884Z,29.88
2023-01-27T02:03:06.581Z,29.35
2023-01-27T02:04:17.041Z,27.58
2023-01-27T02:05:32.573Z,30.77
2023-01-27T02:07:07.408Z,30.13
2023-01-27T02:08:17.457Z,28.38
2023-01-27T02:09:20.992Z,26.58
2023-01-27T02:10:22.424Z,31.63
2023-01-27T02:11:23.979Z,26.25
2023-01-27T02:12:25.401Z,27.67
2023-01-27T02:13:26.931Z,26.88
2023-01-27T02:14:28.444Z,27.05
2023-01-27T02:15:31.102Z,26.00
2023-01-27T02:16:33.196Z,24.95
2023-01-27T02:18:38.768Z,29.35
2023-01-27T02:19:46.143Z,28.70
2023-01-27T02:20:53.204Z,30.85
2023-01-27T02:21:56.664Z,30.38
2023-01-27T02:23:16.551Z,31.70
2023-01-27T02:24:20.087Z,28.17
2023-01-27T02:25:31.140Z,29.30
2023-01-27T02:26:36.922Z,32.30
2023-01-27T02:27:38.395Z,28.50
2023-01-27T02:28:39.923Z,35.95
2023-01-27T02:29:41.309Z,29.45
2023-01-27T02:30:42.826Z,33.50
2023-01-27T02:31:44.454Z,30.27
2023-01-27T02:32:45.935Z,31.52
2023-01-27T02:33:47.426Z,31.10
2023-01-27T02:34:48.897Z,29.98
2023-01-27T02:35:53.168Z,29.38
2023-01-27T02:36:58.740Z,29.65
2023-01-27T02:38:00.663Z,28.70
2023-01-27T02:39:03.383Z,31.83
2023-01-27T02:40:05.757Z,29.13
2023-01-27T02:41:27.644Z,32.92
2023-01-27T02:42:29.141Z,30.88
2023-01-27T02:43:30.729Z,31.33
2023-01-27T02:44:32.998Z,33.08
2023-01-27T02:45:34.458Z,27.52
2023-01-27T02:46:36.532Z,31.08
2023-01-27T02:47:37.998Z,30.90
2023-01-27T02:48:39.384Z,30.67
2023-01-27T02:49:40.823Z,30.65
2023-01-27T02:50:42.325Z,29.33
2023-01-27T02:51:43.829Z,32.33
2023-01-27T02:52:45.244Z,32.10
2023-01-27T02:53:46.717Z,28.52
2023-01-27T02:54:48.122Z,35.65
2023-01-27T02:55:49.553Z,33.45
2023-01-27T02:56:51.787Z,33.47
2023-01-27T02:57:53.322Z,35.28
2023-01-27T02:58:54.724Z,27.70
2023-01-27T02:59:56.184Z,31.33
2023-01-27T03:00:57.597Z,25.95
2023-01-27T03:01:59.061Z,31.00
2023-01-27T03:03:00.493Z,29.38
2023-01-27T03:04:02.296Z,28.05
2023-01-27T03:05:03.968Z,29.35
2023-01-27T03:06:05.610Z,31.38
2023-01-27T03:07:07.010Z,28.52
2023-01-27T03:08:08.487Z,29.65
2023-01-27T03:09:09.926Z,29.33
2023-01-27T03:10:11.537Z,24.48
2023-01-27T03:11:12.991Z,31.00
2023-01-27T03:12:19.949Z,26.05
2023-01-27T03:13:25.482Z,28.90
2023-01-27T03:14:45.510Z,30.92
2023-01-27T03:16:05.438Z,29.88
2023-01-27T03:17:25.282Z,26.30
2023-01-27T03:18:26.748Z,25.30
2023-01-27T03:19:28.160Z,25.52
2023-01-27T03:20:29.593Z,24.48
2023-01-27T03:21:31.017Z,27.15
2023-01-27T03:22:32.431Z,28.73
2023-01-27T03:23:34.324Z,24.65
2023-01-27T03:24:37.401Z,23.23
2023-01-27T03:25:45.086Z,21.75
2023-01-27T03:26:46.821Z,24.83
2023-01-27T03:27:48.251Z,22.38
2023-01-27T03:29:09.807Z,27.48
2023-01-27T03:30:11.776Z,26.05
2023-01-27T03:31:19.455Z,23.98
2023-01-27T03:32:25.399Z,25.95
2023-01-27T03:33:26.811Z,27.02
2023-01-27T03:34:28.270Z,25.75
2023-01-27T03:35:34.290Z,24.05
2023-01-27T03:36:54.397Z,24.10
2023-01-27T03:38:14.202Z,23.00
2023-01-27T03:39:34.164Z,24.92
2023-01-27T03:40:53.945Z,25.95
2023-01-27T03:42:13.852Z,22.23
2023-01-27T03:43:33.638Z,24.08
2023-01-27T03:44:53.355Z,21.80
2023-01-27T03:46:13.307Z,23.92
2023-01-27T03:47:14.758Z,21.23
2023-01-27T03:48:18.416Z,24.88
2023-01-27T03:49:19.893Z,25.77
2023-01-27T03:50:31.105Z,23.20
2023-01-27T03:51:32.545Z,22.98
2023-01-27T03:52:33.920Z,22.85
2023-01-27T03:53:36.386Z,23.17
2023-01-27T03:54:38.329Z,22.92
2023-01-27T03:56:41.278Z,23.10
2023-01-27T03:57:42.662Z,25.10
2023-01-27T03:58:44.219Z,23.90
2023-01-27T03:59:45.802Z,27.10
2023-01-27T04:00:50.838Z,22.20
2023-01-27T04:01:52.441Z,23.20
2023-01-27T04:03:12.689Z,23.58
2023-01-27T04:05:52.780Z,24.13
2023-01-27T04:06:55.210Z,19.90
2023-01-27T04:07:56.625Z,20.00
2023-01-27T04:08:58.490Z,22.95
2023-01-27T04:09:59.989Z,24.55
2023-01-27T04:11:21.749Z,22.95
2023-01-27T04:12:23.134Z,21.92
2023-01-27T04:13:24.584Z,21.70
2023-01-27T04:14:30.269Z,23.85
2023-01-27T04:15:31.682Z,23.50
2023-01-27T04:16:34.405Z,23.20
2023-01-27T04:17:38.791Z,23.30
2023-01-27T04:18:40.283Z,22.42
2023-01-27T04:19:41.823Z,19.40
2023-01-27T04:20:43.237Z,24.38
2023-01-27T04:21:44.713Z,22.60
2023-01-27T04:22:46.116Z,21.85
2023-01-27T04:23:47.584Z,22.85
2023-01-27T04:24:50.100Z,22.88
2023-01-27T04:25:54.225Z,21.92
2023-01-27T04:26:58.618Z,23.20
2023-01-27T04:28:00.038Z,25.60
2023-01-27T04:29:03.507Z,23.95
2023-01-27T04:30:05.563Z,25.77
2023-01-27T04:31:07.113Z,23.67
2023-01-27T04:32:10.528Z,22.63
2023-01-27T04:33:15.290Z,21.33
2023-01-27T04:34:17.425Z,22.88
2023-01-27T04:36:24.861Z,21.33
2023-01-27T04:37:26.321Z,25.35
2023-01-27T04:38:27.903Z,25.55
2023-01-27T04:39:29.624Z,24.90
2023-01-27T04:40:31.024Z,21.27
2023-01-27T04:41:32.522Z,23.27
2023-01-27T04:42:33.959Z,21.58
2023-01-27T04:43:35.624Z,21.73
2023-01-27T04:44:37.042Z,21.35
2023-01-27T04:45:38.515Z,23.63
2023-01-27T04:46:40.512Z,22.83
2023-01-27T04:47:41.968Z,22.08
2023-01-27T04:48:43.462Z,21.52
2023-01-27T04:49:44.883Z,22.63
2023-01-27T04:50:46.302Z,22.95
2023-01-27T04:51:48.060Z,21.25
2023-01-27T04:52:49.628Z,22.35
2023-01-27T04:53:51.132Z,23.05
2023-01-27T04:54:52.657Z,22.88
2023-01-27T04:56:05.245Z,30.67
2023-01-27T04:57:06.726Z,23.23
2023-01-27T04:58:08.149Z,20.92
2023-01-27T04:59:14.371Z,22.13
2023-01-27T05:00:17.431Z,21.58
2023-01-27T05:01:18.995Z,20.77
2023-01-27T05:02:20.425Z,25.52
2023-01-27T05:03:21.864Z,24.83
2023-01-27T05:04:23.424Z,25.52
2023-01-27T05:05:24.851Z,23.85
2023-01-27T05:06:26.731Z,21.95
2023-01-27T05:07:28.142Z,22.63
2023-01-27T05:08:29.570Z,24.80
2023-01-27T05:09:30.989Z,25.10
2023-01-27T05:10:32.841Z,23.42
2023-01-27T05:11:34.236Z,23.05
2023-01-27T05:12:35.778Z,21.02
2023-01-27T05:13:37.937Z,25.27
2023-01-27T05:15:40.705Z,21.05
2023-01-27T05:16:42.277Z,23.30
2023-01-27T05:17:43.744Z,23.70
2023-01-27T05:18:47.305Z,22.90
2023-01-27T05:19:48.725Z,22.50
2023-01-27T05:20:51.515Z,22.70
2023-01-27T05:21:53.629Z,26.85
2023-01-27T05:23:15.003Z,24.23
2023-01-27T05:24:16.437Z,20.40
2023-01-27T05:25:17.892Z,22.65
2023-01-27T05:26:24.702Z,22.83
2023-01-27T05:27:26.128Z,24.25
2023-01-27T05:28:28.421Z,24.75
2023-01-27T05:29:30.826Z,26.70
2023-01-27T05:30:32.245Z,26.02
2023-01-27T05:31:33.747Z,24.70
2023-01-27T05:32:35.246Z,27.75
2023-01-27T05:33:36.717Z,26.20
2023-01-27T05:34:38.125Z,24.75
2023-01-27T05:35:39.524Z,28.67
2023-01-27T05:36:40.991Z,25.08
2023-01-27T05:37:42.464Z,25.73
2023-01-27T05:38:44.112Z,26.02
2023-01-27T05:39:45.525Z,24.08
2023-01-27T05:40:46.919Z,26.83
2023-01-27T05:41:48.458Z,27.42
2023-01-27T05:42:52.058Z,32.50
2023-01-27T05:43:55.849Z,31.42
2023-01-27T05:44:57.231Z,31.95
2023-01-27T05:46:10.822Z,27.38
2023-01-27T05:47:12.288Z,29.05
2023-01-27T05:48:13.768Z,29.20
2023-01-27T05:49:15.242Z,28.48
2023-01-27T05:50:17.368Z,28.95
2023-01-27T05:52:21.122Z,28.38
2023-01-27T05:53:23.044Z,26.90
2023-01-27T05:54:24.461Z,27.85
2023-01-27T05:55:25.896Z,32.03
2023-01-27T05:56:27.434Z,31.33
2023-01-27T05:57:28.849Z,26.45
2023-01-27T05:58:31.164Z,27.33
2023-01-27T05:59:32.624Z,26.27
2023-01-27T06:00:34.010Z,26.27
2023-01-27T06:01:35.614Z,30.40
2023-01-27T06:02:37.187Z,26.15
2023-01-27T06:03:39.367Z,27.27
2023-01-27T06:04:40.836Z,27.27
2023-01-27T06:05:56.402Z,27.55
2023-01-27T06:06:57.830Z,23.92
2023-01-27T06:07:59.210Z,22.15
2023-01-27T06:09:00.893Z,24.33
2023-01-27T06:10:02.357Z,19.83
2023-01-27T06:11:04.335Z,20.27
2023-01-27T06:12:06.011Z,21.83
2023-01-27T06:13:07.477Z,22.65
2023-01-27T06:14:08.985Z,22.45
2023-01-27T06:15:10.745Z,21.67
2023-01-27T06:16:15.086Z,23.80
2023-01-27T06:17:16.503Z,20.05
2023-01-27T06:18:19.257Z,22.95
2023-01-27T06:19:20.692Z,24.65
2023-01-27T06:20:22.100Z,22.10
2023-01-27T06:21:23.565Z,24.73
2023-01-27T06:22:24.965Z,20.45
2023-01-27T06:23:27.530Z,21.33
2023-01-27T06:24:28.996Z,23.55
2023-01-27T06:25:30.484Z,26.17
2023-01-27T06:26:31.911Z,21.92
2023-01-27T06:27:33.382Z,23.98
2023-01-27T06:28:35.805Z,26.45
2023-01-27T06:29:37.251Z,22.52
2023-01-27T06:30:40.161Z,24.05
2023-01-27T06:31:41.721Z,24.85
2023-01-27T06:32:43.300Z,30.75
2023-01-27T06:33:45.002Z,25.30
2023-01-27T06:34:46.455Z,29.77
2023-01-27T06:35:47.896Z,24.13
2023-01-27T06:36:49.303Z,27.58
2023-01-27T06:37:51.823Z,25.08
2023-01-27T06:38:53.363Z,27.58
2023-01-27T06:39:54.827Z,27.55
2023-01-27T06:40:56.255Z,27.77
2023-01-27T06:41:57.676Z,26.90
2023-01-27T06:42:59.839Z,27.10
2023-01-27T06:45:02.712Z,23.10
2023-01-27T06:46:05.873Z,26.65
2023-01-27T06:47:07.585Z,21.88
2023-01-27T06:48:09.272Z,26.48
2023-01-27T06:49:10.658Z,27.83
2023-01-27T06:50:12.401Z,23.75
2023-01-27T06:52:15.491Z,25.48
2023-01-27T06:53:16.915Z,25.48
2023-01-27T06:54:18.320Z,28.15
2023-01-27T06:55:19.912Z,27.50
2023-01-27T06:56:21.323Z,23.92
2023-01-27T06:57:23.016Z,29.35
2023-01-27T06:58:24.731Z,24.20
2023-01-27T06:59:26.155Z,25.67
2023-01-27T07:00:27.602Z,24.17
2023-01-27T07:01:29.089Z,26.67
2023-01-27T07:02:30.590Z,27.65
2023-01-27T07:03:32.035Z,24.58
2023-01-27T07:04:33.462Z,24.70
2023-01-27T07:05:35.007Z,22.45
2023-01-27T07:06:36.432Z,21.08
2023-01-27T07:07:38.579Z,23.33
2023-01-27T07:09:52.090Z,20.67
2023-01-27T07:10:54.374Z,23.88
2023-01-27T07:11:56.044Z,23.02
2023-01-27T07:13:05.282Z,22.75
2023-01-27T07:14:08.459Z,22.73
2023-01-27T07:15:12.410Z,21.58
2023-01-27T07:17:15.320Z,21.48
2023-01-27T07:18:16.831Z,20.92
2023-01-27T07:19:18.222Z,23.55
2023-01-27T07:20:19.704Z,21.17
2023-01-27T07:21:21.137Z,23.90
2023-01-27T07:22:22.564Z,21.90
2023-01-27T07:23:23.960Z,22.38
2023-01-27T07:24:25.379Z,23.58
2023-01-27T07:25:27.909Z,27.42
2023-01-27T07:26:29.396Z,22.45
2023-01-27T07:27:30.923Z,23.15
2023-01-27T07:28:32.340Z,22.38
2023-01-27T07:29:33.745Z,22.95
2023-01-27T07:30:35.361Z,22.38
2023-01-27T07:31:36.866Z,24.38
2023-01-27T07:32:38.284Z,22.38
2023-01-27T07:33:39.728Z,21.58
2023-01-27T07:34:41.241Z,19.40
2023-01-27T07:35:42.833Z,19.48
2023-01-27T07:36:44.289Z,15.15
2023-01-27T07:37:45.709Z,20.17
2023-01-27T07:38:50.912Z,18.85
2023-01-27T07:39:52.354Z,17.33
2023-01-27T07:40:53.744Z,20.70
2023-01-27T07:41:55.241Z,17.88
2023-01-27T07:43:00.822Z,18.67
2023-01-27T07:44:02.255Z,18.17
2023-01-27T07:45:03.977Z,18.80
2023-01-27T07:46:05.432Z,18.98
2023-01-27T07:47:07.010Z,17.73
2023-01-27T07:48:09.013Z,19.88
2023-01-27T07:49:12.340Z,18.73
2023-01-27T07:50:14.188Z,19.15
2023-01-27T07:51:15.806Z,20.45
2023-01-27T07:52:17.203Z,19.55
2023-01-27T07:53:18.611Z,23.90
2023-01-27T07:54:20.030Z,23.55
2023-01-27T07:55:21.546Z,17.80
2023-01-27T07:56:23.027Z,20.48
2023-01-27T07:57:24.481Z,20.55
2023-01-27T07:58:25.894Z,23.42
2023-01-27T07:59:28.386Z,22.13
2023-01-27T08:00:30.290Z,22.63
2023-01-27T08:01:32.938Z,26.60
2023-01-27T08:02:34.420Z,25.40
2023-01-27T08:03:36.549Z,22.85
2023-01-27T08:05:54.233Z,23.60
2023-01-27T08:06:55.666Z,21.05
2023-01-27T08:07:59.067Z,21.67
2023-01-27T08:09:00.683Z,25.00
2023-01-27T08:10:02.171Z,25.00
2023-01-27T08:11:08.023Z,23.25
2023-01-27T08:12:09.513Z,26.42
2023-01-27T08:13:10.938Z,21.58
2023-01-27T08:14:12.380Z,22.05
2023-01-27T08:15:16.045Z,21.75
2023-01-27T08:16:18.548Z,22.45
2023-01-27T08:17:19.982Z,26.05
2023-01-27T08:18:21.400Z,26.17
2023-01-27T08:19:22.811Z,31.10
2023-01-27T08:20:25.568Z,28.73
2023-01-27T08:21:32.650Z,24.83
2023-01-27T08:22:34.076Z,24.17
2023-01-27T08:23:35.596Z,25.90
2023-01-27T08:24:37.020Z,22.63
2023-01-27T08:25:38.460Z,20.40
2023-01-27T08:26:40.004Z,24.08
2023-01-27T08:27:41.383Z,25.52
2023-01-27T08:28:42.843Z,27.75
2023-01-27T08:29:44.314Z,27.48
2023-01-27T08:30:46.420Z,20.50
2023-01-27T08:32:49.861Z,24.17
2023-01-27T08:33:53.326Z,23.00
2023-01-27T08:34:55.481Z,19.45
2023-01-27T08:36:58.402Z,24.50
2023-01-27T08:37:59.830Z,20.48
2023-01-27T08:39:01.323Z,24.70
2023-01-27T08:40:03.439Z,22.17
2023-01-27T08:42:11.377Z,20.38
2023-01-27T08:43:13.428Z,22.05
2023-01-27T08:44:14.925Z,17.88
2023-01-27T08:45:16.344Z,23.90
2023-01-27T08:46:17.841Z,19.17
2023-01-27T08:47:19.268Z,22.05
2023-01-27T08:48:22.644Z,18.70
2023-01-27T08:49:24.045Z,19.35
2023-01-27T08:50:25.678Z,19.58
2023-01-27T08:51:27.150Z,21.95
2023-01-27T08:52:30.715Z,18.60
2023-01-27T08:53:32.840Z,19.27
2023-01-27T08:55:35.531Z,15.18
2023-01-27T08:56:36.988Z,18.70
2023-01-27T08:57:38.506Z,17.00
2023-01-27T08:58:40.504Z,16.73
2023-01-27T08:59:41.892Z,19.17
2023-01-27T09:00:43.859Z,15.95
2023-01-27T09:01:45.395Z,13.02
2023-01-27T09:02:47.370Z,16.85
2023-01-27T09:03:49.210Z,16.90
2023-01-27T09:04:51.413Z,16.73
2023-01-27T09:05:52.957Z,16.85
2023-01-27T09:06:54.470Z,15.95
2023-01-27T09:07:56.000Z,16.55
2023-01-27T09:09:11.522Z,19.05
2023-01-27T09:10:15.473Z,20.27
2023-01-27T09:11:17.863Z,16.05
2023-01-27T09:12:19.330Z,16.50
2023-01-27T09:13:22.336Z,16.75
2023-01-27T09:14:23.795Z,18.60
2023-01-27T09:15:25.209Z,18.67
2023-01-27T09:16:26.943Z,18.92
2023-01-27T09:17:28.406Z,16.50
2023-01-27T09:18:29.951Z,15.07
2023-01-27T09:19:31.398Z,21.15
2023-01-27T09:20:34.282Z,17.98
2023-01-27T09:21:35.750Z,15.95
2023-01-27T09:22:40.152Z,17.38
2023-01-27T09:23:41.587Z,20.30
2023-01-27T09:24:43.117Z,16.45
2023-01-27T09:25:44.586Z,16.38
2023-01-27T09:26:46.494Z,16.15
2023-01-27T09:27:47.940Z,17.45
2023-01-27T09:28:49.339Z,16.42
2023-01-27T09:29:50.768Z,15.68
2023-01-27T09:30:57.778Z,17.98
2023-01-27T09:31:59.421Z,16.27
2023-01-27T09:33:01.505Z,16.80
2023-01-27T09:35:06.555Z,14.55
2023-01-27T09:37:18.812Z,14.80
2023-01-27T09:38:22.674Z,13.43
2023-01-27T09:39:24.743Z,14.45
2023-01-27T09:42:16.320Z,11.48
2023-01-27T09:43:51.646Z,12.52
2023-01-27T09:45:24.381Z,15.23
2023-01-27T09:47:03.024Z,12.50
2023-01-27T09:48:31.699Z,13.20
2023-01-27T09:49:45.235Z,16.38
2023-01-27T09:51:04.054Z,16.27
2023-01-27T09:52:20.852Z,14.45
2023-01-27T09:53:25.349Z,13.85
2023-01-27T09:54:52.905Z,13.02
2023-01-27T09:56:20.437Z,13.90
2023-01-27T09:57:38.593Z,14.85
2023-01-27T09:59:00.331Z,14.18
2023-01-27T10:00:19.291Z,12.48
2023-01-27T10:01:29.952Z,12.48
2023-01-27T10:02:58.658Z,13.75
2023-01-27T10:04:12.368Z,14.18
2023-01-27T10:05:50.228Z,14.88
2023-01-27T10:07:05.217Z,12.30
2023-01-27T10:08:37.764Z,14.32
2023-01-27T10:10:00.961Z,11.55
2023-01-27T10:11:10.358Z,14.48
2023-01-27T10:12:30.827Z,16.27
2023-01-27T10:14:02.064Z,11.57
2023-01-27T10:15:29.543Z,12.93
2023-01-27T10:16:51.788Z,13.30
2023-01-27T10:18:14.514Z,12.35
2023-01-27T10:19:31.021Z,10.38
2023-01-27T10:20:47.548Z,13.00
2023-01-27T10:22:11.245Z,12.82
2023-01-27T10:23:20.900Z,10.70
2023-01-27T10:24:42.177Z,13.15
2023-01-27T10:25:43.544Z,13.15
2023-01-27T10:26:59.490Z,11.85
2023-01-27T10:28:09.400Z,11.57
2023-01-27T10:29:32.122Z,16.20
2023-01-27T10:30:36.277Z,11.93
2023-01-27T10:31:48.554Z,13.43
2023-01-27T10:33:01.106Z,14.05
2023-01-27T10:34:19.855Z,12.30
2023-01-27T10:35:31.809Z,12.82
2023-01-27T10:36:56.609Z,11.43
2023-01-27T10:38:24.136Z,11.57
2023-01-27T10:40:19.260Z,9.25
2023-01-27T10:42:02.603Z,10.80
2023-01-27T10:43:25.699Z,11.65
2023-01-27T10:45:05.552Z,12.45
2023-01-27T10:47:01.360Z,9.60
2023-01-27T10:48:24.810Z,11.57
2023-01-27T10:49:35.839Z,10.27
2023-01-27T10:50:43.173Z,13.65
2023-01-27T10:51:52.934Z,11.63
2023-01-27T10:53:01.614Z,11.40
2023-01-27T10:54:18.695Z,12.85
2023-01-27T10:55:26.034Z,12.50
2023-01-27T10:57:08.475Z,11.07
2023-01-27T10:58:33.504Z,14.68
2023-01-27T10:59:45.216Z,12.05
2023-01-27T11:02:45.792Z,9.77
2023-01-27T11:03:56.508Z,9.70
2023-01-27T11:05:02.265Z,7.40
2023-01-27T11:06:13.764Z,9.98
2023-01-27T11:07:19.385Z,8.70
2023-01-27T11:08:26.955Z,9.88
2023-01-27T11:09:35.761Z,11.95
2023-01-27T11:11:02.238Z,9.60
2023-01-27T11:12:10.395Z,15.50
2023-01-27T11:14:25.876Z,7.95
2023-01-27T11:15:31.459Z,9.07
2023-01-27T11:16:38.857Z,9.80
2023-01-27T11:18:15.917Z,12.10
2023-01-27T11:19:36.324Z,11.05
2023-01-27T11:20:48.355Z,10.45
2023-01-27T11:22:06.712Z,7.78
2023-01-27T11:23:19.150Z,9.77
2023-01-27T11:24:32.249Z,8.20
2023-01-27T11:26:00.757Z,8.27
2023-01-27T11:27:22.546Z,8.55
2023-01-27T11:28:37.339Z,8.93
2023-01-27T11:29:55.071Z,11.13
2023-01-27T11:31:18.667Z,8.85
2023-01-27T11:32:36.633Z,9.98
2023-01-27T11:33:51.849Z,10.88
2023-01-27T11:35:13.665Z,10.55
2023-01-27T11:36:15.241Z,12.48
2023-01-27T11:37:27.141Z,9.40
2023-01-27T11:38:28.676Z,8.75
2023-01-27T11:39:32.392Z,8.68
2023-01-27T11:40:37.586Z,9.13
2023-01-27T11:41:45.940Z,7.97
2023-01-27T11:42:47.802Z,10.30
2023-01-27T11:43:49.558Z,8.75
2023-01-27T11:44:56.082Z,6.95
2023-01-27T11:46:07.521Z,6.57
2023-01-27T11:47:20.678Z,6.53
2023-01-27T11:48:23.513Z,7.05
2023-01-27T11:49:31.745Z,5.10
2023-01-27T11:50:35.767Z,4.95
2023-01-27T11:51:40.368Z,7.80
2023-01-27T11:52:43.169Z,6.43
2023-01-27T11:53:46.299Z,10.75
2023-01-27T11:54:53.667Z,6.13
2023-01-27T11:56:03.683Z,6.18
2023-01-27T11:57:05.125Z,5.50
2023-01-27T11:58:16.000Z,7.25
2023-01-27T11:59:26.342Z,7.50
2023-01-27T12:00:59.385Z,7.25
2023-01-27T12:02:06.922Z,5.60
2023-01-27T12:03:22.041Z,8.38
2023-01-27T12:04:38.877Z,5.13
2023-01-27T12:05:47.834Z,5.00
2023-01-27T12:06:55.285Z,5.90
2023-01-27T12:07:56.708Z,9.27
2023-01-27T12:08:58.144Z,9.32
2023-01-27T12:09:59.568Z,5.45
2023-01-27T12:11:16.326Z,7.10
2023-01-27T12:12:25.231Z,6.60
2023-01-27T12:13:26.670Z,7.55
2023-01-27T12:14:28.069Z,8.45
2023-01-27T12:15:31.267Z,6.75
2023-01-27T12:16:52.124Z,7.60
2023-01-27T12:18:00.184Z,5.70
2023-01-27T12:19:14.931Z,8.35
2023-01-27T12:20:25.667Z,5.78
2023-01-27T12:21:38.019Z,6.65
2023-01-27T12:22:44.472Z,11.05
2023-01-27T12:23:54.675Z,7.68
2023-01-27T12:25:00.528Z,7.28
2023-01-27T12:26:05.031Z,9.63
2023-01-27T12:27:06.961Z,8.15
2023-01-27T12:28:22.726Z,6.28
2023-01-27T12:29:29.941Z,7.93
2023-01-27T12:30:36.947Z,7.90
2023-01-27T12:31:51.249Z,9.07
2023-01-27T12:32:54.087Z,9.15
2023-01-27T12:34:04.996Z,8.55
2023-01-27T12:35:18.254Z,8.60
2023-01-27T12:36:24.731Z,7.35
2023-01-27T12:37:37.380Z,8.00
2023-01-27T12:38:45.211Z,10.45
2023-01-27T12:39:53.095Z,6.05
2023-01-27T12:41:05.302Z,5.88
2023-01-27T12:42:38.799Z,7.35
2023-01-27T12:43:52.231Z,6.05
2023-01-27T12:44:53.667Z,5.20
2023-01-27T12:46:23.115Z,4.82
2023-01-27T12:47:29.304Z,7.80
2023-01-27T12:48:34.009Z,5.15
2023-01-27T12:49:38.738Z,8.10
2023-01-27T12:50:42.982Z,7.57
2023-01-27T12:51:51.458Z,7.43
2023-01-27T12:53:14.011Z,8.38
2023-01-27T12:54:27.527Z,9.00
2023-01-27T12:55:31.635Z,6.32
2023-01-27T12:56:34.270Z,8.25
2023-01-27T12:57:35.899Z,7.22
2023-01-27T12:58:41.157Z,12.80
2023-01-27T12:59:50.343Z,8.85
2023-01-27T13:00:51.945Z,9.27
2023-01-27T13:02:23.055Z,9.25
2023-01-27T13:03:26.240Z,8.05
2023-01-27T13:04:28.941Z,4.93
2023-01-27T13:05:37.068Z,9.52
2023-01-27T13:07:48.285Z,9.13
2023-01-27T13:08:52.453Z,10.60
2023-01-27T13:09:59.135Z,9.35
2023-01-27T13:11:03.109Z,8.23
2023-01-27T13:12:49.294Z,8.80
2023-01-27T13:13:51.396Z,6.75
2023-01-27T13:16:23.164Z,10.10
2023-01-27T13:17:45.894Z,3.92
2023-01-27T13:18:54.792Z,7.07
2023-01-27T13:20:01.569Z,8.50
2023-01-27T13:21:34.921Z,8.02
2023-01-27T13:22:42.344Z,7.00
2023-01-27T13:23:46.241Z,7.30
2023-01-27T13:24:52.983Z,8.32
2023-01-27T13:26:07.471Z,7.50
2023-01-27T13:27:16.102Z,8.07
2023-01-27T13:28:25.620Z,6.38
2023-01-27T13:29:31.525Z,14.35
2023-01-27T13:30:43.136Z,10.82
2023-01-27T13:32:05.185Z,10.10
2023-01-27T13:33:38.205Z,8.85
2023-01-27T13:34:46.323Z,12.25
2023-01-27T13:37:10.012Z,9.07
2023-01-27T13:38:40.284Z,8.63
2023-01-27T13:40:16.632Z,9.52
2023-01-27T13:41:25.523Z,10.43
2023-01-27T13:42:38.478Z,12.35
2023-01-27T13:43:48.554Z,13.13
2023-01-27T13:45:03.385Z,15.10
2023-01-27T13:46:28.605Z,11.88
2023-01-27T13:47:49.126Z,14.60
2023-01-27T13:49:03.347Z,12.68
2023-01-27T13:50:35.866Z,14.18
2023-01-27T13:51:39.503Z,14.32
2023-01-27T13:52:41.061Z,16.52
2023-01-27T13:53:44.436Z,15.77
2023-01-27T13:54:45.957Z,21.02
2023-01-27T13:55:50.569Z,14.85
2023-01-27T13:57:00.792Z,22.70
2023-01-27T13:58:18.112Z,13.98
2023-01-27T13:59:37.516Z,13.95
2023-01-27T14:01:02.356Z,15.25
2023-01-27T14:02:29.733Z,13.65
2023-01-27T14:03:49.376Z,14.98
2023-01-27T14:05:12.411Z,27.00
2023-01-27T14:06:13.851Z,15.48
2023-01-27T14:07:40.220Z,14.23
2023-01-27T14:08:49.395Z,16.98
2023-01-27T14:10:20.469Z,11.73
2023-01-27T14:11:21.868Z,15.13
2023-01-27T14:12:47.912Z,12.65
2023-01-27T14:14:43.679Z,11.93
2023-01-27T14:15:55.611Z,12.80
2023-01-27T14:17:27.435Z,12.32
2023-01-27T14:18:35.384Z,17.83
2023-01-27T14:19:53.194Z,16.20
2023-01-27T14:20:57.783Z,11.13
2023-01-27T14:22:13.659Z,11.73
2023-01-27T14:23:46.518Z,10.60
2023-01-27T14:24:56.315Z,11.70
2023-01-27T14:26:13.033Z,16.58
2023-01-27T14:27:22.064Z,11.70
2023-01-27T14:28:52.789Z,13.15
2023-01-27T14:30:03.493Z,10.20
2023-01-27T14:31:13.069Z,13.07
2023-01-27T14:32:23.826Z,12.20
2023-01-27T14:33:49.542Z,13.32
2023-01-27T14:35:05.640Z,9.63
2023-01-27T14:36:23.521Z,14.35
2023-01-27T14:37:32.298Z,12.45
2023-01-27T14:39:02.491Z,10.73
2023-01-27T14:40:17.368Z,10.77
2023-01-27T14:41:32.029Z,10.13
2023-01-27T14:42:39.085Z,14.27
2023-01-27T14:43:55.527Z,10.43
2023-01-27T14:45:06.560Z,12.27
2023-01-27T14:46:23.063Z,9.30
2023-01-27T14:48:09.426Z,11.00
2023-01-27T14:49:24.192Z,11.13
2023-01-27T14:50:41.397Z,10.75
2023-01-27T14:51:50.536Z,12.20
2023-01-27T14:53:31.507Z,7.22
2023-01-27T14:55:01.961Z,10.35
2023-01-27T14:56:50.701Z,8.90
2023-01-27T14:58:17.119Z,10.30
2023-01-27T14:59:41.297Z,11.00
2023-01-27T15:01:03.896Z,9.35